createdAt,value
2017-10-21T00:00:44.441Z,70.10
2017-10-21T00:01:47.725Z,70.40
2017-10-21T00:02:51.041Z,70.30
2017-10-21T00:03:53.553Z,70.30
2017-10-21T00:04:56.082Z,70.20
2017-10-21T00:05:58.607Z,70.30
2017-10-21T00:07:01.954Z,70.80
2017-10-21T00:08:04.476Z,70.80
2017-10-21T00:09:06.999Z,70.40
2017-10-21T00:10:09.527Z,70.30
2017-10-21T00:11:12.049Z,70.70
2017-10-21T00:12:15.377Z,70.30
2017-10-21T00:13:17.893Z,70.20
2017-10-21T00:14:21.182Z,70.50
2017-10-21T00:15:24.484Z,70.40
2017-10-21T00:16:27.014Z,70.40
2017-10-21T00:17:29.583Z,70.20
2017-10-21T00:18:32.112Z,70.50
2017-10-21T00:19:34.632Z,70.90
2017-10-21T00:20:37.922Z,70.30
2017-10-21T00:21:41.539Z,70.40
2017-10-21T00:22:44.096Z,70.50
2017-10-21T00:23:46.633Z,70.40
2017-10-21T00:24:49.918Z,70.60
2017-10-21T00:25:53.412Z,70.60
2017-10-21T00:26:56.767Z,70.60
2017-10-21T00:27:59.321Z,70.40
2017-10-21T00:29:01.839Z,70.20
2017-10-21T00:30:05.140Z,70.20
2017-10-21T00:31:07.833Z,70.20
2017-10-21T00:32:10.363Z,70.20
2017-10-21T00:33:12.947Z,70.30
2017-10-21T00:34:15.469Z,70.80
2017-10-21T00:35:18.766Z,70.80
2017-10-21T00:36:22.049Z,70.40
2017-10-21T00:37:25.335Z,70.40
2017-10-21T00:38:28.696Z,70.50
2017-10-21T00:39:31.227Z,70.40
2017-10-21T00:40:33.741Z,70.30
2017-10-21T00:41:37.038Z,70.50
2017-10-21T00:42:40.330Z,70.60
2017-10-21T00:43:42.893Z,70.50
2017-10-21T00:44:46.191Z,70.70
2017-10-21T00:45:48.727Z,70.60
2017-10-21T00:46:52.015Z,70.50
2017-10-21T00:47:55.313Z,70.40
2017-10-21T00:48:58.678Z,70.10
2017-10-21T00:50:01.968Z,71.00
2017-10-21T00:51:05.256Z,70.30
2017-10-21T00:52:08.539Z,70.60
2017-10-21T00:53:11.840Z,70.60
2017-10-21T00:54:14.397Z,70.50
2017-10-21T00:55:17.746Z,70.80
2017-10-21T00:56:20.269Z,70.80
2017-10-21T00:57:22.785Z,70.50
2017-10-21T00:58:25.303Z,70.30
2017-10-21T00:59:27.823Z,70.50
2017-10-21T01:00:30.370Z,70.50
2017-10-21T01:01:32.909Z,70.90
2017-10-21T01:02:35.431Z,70.60
2017-10-21T01:03:38.716Z,70.90
2017-10-21T01:04:42.005Z,70.80
2017-10-21T01:05:45.326Z,70.80
2017-10-21T01:06:47.848Z,70.70
2017-10-21T01:07:51.150Z,71.00
2017-10-21T01:08:53.662Z,70.90
2017-10-21T01:09:56.226Z,71.30
2017-10-21T01:10:58.905Z,71.00
2017-10-21T01:12:01.430Z,70.70
2017-10-21T01:13:03.942Z,70.70
2017-10-21T01:14:06.460Z,70.70
2017-10-21T01:15:09.009Z,70.70
2017-10-21T01:16:11.560Z,70.80
2017-10-21T01:17:14.878Z,71.00
2017-10-21T01:18:17.394Z,71.00
2017-10-21T01:19:19.911Z,71.10
2017-10-21T01:20:22.442Z,71.10
2017-10-21T01:21:25.742Z,70.80
2017-10-21T01:22:28.304Z,70.80
2017-10-21T01:23:31.625Z,70.80
2017-10-21T01:24:34.158Z,70.80
2017-10-21T01:25:36.679Z,71.10
2017-10-21T01:26:39.189Z,71.00
2017-10-21T01:27:41.715Z,71.20
2017-10-21T01:28:44.269Z,71.00
2017-10-21T01:29:46.785Z,71.30
2017-10-21T01:30:50.074Z,71.00
2017-10-21T01:31:52.598Z,71.00
2017-10-21T01:32:55.122Z,71.20
2017-10-21T01:33:57.690Z,71.10
2017-10-21T01:35:00.404Z,71.00
2017-10-21T01:36:02.921Z,71.20
2017-10-21T01:37:05.450Z,71.00
2017-10-21T01:38:08.746Z,71.10
2017-10-21T01:39:12.123Z,70.70
2017-10-21T01:40:15.413Z,70.90
2017-10-21T01:41:18.698Z,70.80
2017-10-21T01:42:21.990Z,70.50
2017-10-21T01:43:25.269Z,70.70
2017-10-21T01:44:28.587Z,70.90
2017-10-21T01:45:31.107Z,70.80
2017-10-21T01:46:34.387Z,70.70
2017-10-21T01:47:37.675Z,70.90
2017-10-21T01:48:40.997Z,71.20
2017-10-21T01:49:43.553Z,71.10
2017-10-21T01:50:46.075Z,70.90
2017-10-21T01:51:48.606Z,71.10
2017-10-21T01:52:51.147Z,71.00
2017-10-21T01:53:53.666Z,70.70
2017-10-21T01:54:56.233Z,70.70
2017-10-21T01:55:58.754Z,70.80
2017-10-21T01:57:01.442Z,71.10
2017-10-21T01:58:03.959Z,70.70
2017-10-21T01:59:07.258Z,70.80
2017-10-21T02:00:09.802Z,70.80
2017-10-21T02:01:13.089Z,70.90
2017-10-21T02:02:16.386Z,70.80
2017-10-21T02:03:18.907Z,70.80
2017-10-21T02:04:21.434Z,71.10
2017-10-21T02:05:23.982Z,71.30
2017-10-21T02:06:27.266Z,71.20
2017-10-21T02:07:29.800Z,71.20
2017-10-21T02:08:32.321Z,71.00
2017-10-21T02:09:34.848Z,70.90
2017-10-21T02:10:38.181Z,71.10
2017-10-21T02:11:40.707Z,71.10
2017-10-21T02:12:43.996Z,71.00
2017-10-21T02:13:47.489Z,71.10
2017-10-21T02:14:50.014Z,71.10
2017-10-21T02:15:52.955Z,71.00
2017-10-21T02:16:55.482Z,71.00
2017-10-21T02:17:58.770Z,71.30
2017-10-21T02:19:02.066Z,71.20
2017-10-21T02:20:04.582Z,71.20
2017-10-21T02:21:07.142Z,71.40
2017-10-21T02:22:09.696Z,71.20
2017-10-21T02:23:12.216Z,71.30
2017-10-21T02:24:15.509Z,71.70
2017-10-21T02:25:18.825Z,71.30
2017-10-21T02:26:21.342Z,71.30
2017-10-21T02:27:24.644Z,71.60
2017-10-21T02:28:27.922Z,71.40
2017-10-21T02:29:31.215Z,71.40
2017-10-21T02:30:33.781Z,71.30
2017-10-21T02:31:36.310Z,71.50
2017-10-21T02:32:38.822Z,71.40
2017-10-21T02:33:41.340Z,71.40
2017-10-21T02:34:43.871Z,71.10
2017-10-21T02:35:46.418Z,71.60
2017-10-21T02:36:48.987Z,71.30
2017-10-21T02:37:51.506Z,71.30
2017-10-21T02:38:54.026Z,71.30
2017-10-21T02:39:56.551Z,71.10
2017-10-21T02:40:59.834Z,71.40
2017-10-21T02:42:02.398Z,71.40
2017-10-21T02:43:04.927Z,71.20
2017-10-21T02:44:07.460Z,71.40
2017-10-21T02:45:09.984Z,71.20
2017-10-21T02:46:12.499Z,71.40
2017-10-21T02:47:15.064Z,71.50
2017-10-21T02:48:17.625Z,71.60
2017-10-21T02:49:20.155Z,71.70
2017-10-21T02:50:22.682Z,71.60
2017-10-21T02:51:25.226Z,71.70
2017-10-21T02:52:27.778Z,71.40
2017-10-21T02:53:31.079Z,71.40
2017-10-21T02:54:33.594Z,71.40
2017-10-21T02:55:36.115Z,71.50
2017-10-21T02:56:38.638Z,71.80
2017-10-21T02:57:41.206Z,71.70
2017-10-21T02:58:44.499Z,71.80
2017-10-21T02:59:47.781Z,71.80
2017-10-21T03:00:51.072Z,71.60
2017-10-21T03:01:54.368Z,71.90
2017-10-21T03:02:56.926Z,71.90
2017-10-21T03:04:00.211Z,71.70
2017-10-21T03:05:03.502Z,71.60
2017-10-21T03:06:06.080Z,71.50
2017-10-21T03:07:09.450Z,71.80
2017-10-21T03:08:11.984Z,71.90
2017-10-21T03:09:14.514Z,72.10
2017-10-21T03:10:17.026Z,72.00
2017-10-21T03:11:20.362Z,72.60
2017-10-21T03:12:22.890Z,72.20
2017-10-21T03:13:26.173Z,72.10
2017-10-21T03:14:29.467Z,72.10
2017-10-21T03:15:31.989Z,72.10
2017-10-21T03:16:34.538Z,72.30
2017-10-21T03:17:37.096Z,72.40
2017-10-21T03:18:39.635Z,72.20
2017-10-21T03:19:42.177Z,72.20
2017-10-21T03:20:45.469Z,72.50
2017-10-21T03:21:48.762Z,72.30
2017-10-21T03:22:51.330Z,72.30
2017-10-21T03:23:53.859Z,72.40
2017-10-21T03:24:56.390Z,72.10
2017-10-21T03:25:58.906Z,72.30
2017-10-21T03:27:02.197Z,73.20
2017-10-21T03:28:05.522Z,72.60
2017-10-21T03:29:08.042Z,72.60
2017-10-21T03:30:11.368Z,72.60
2017-10-21T03:31:13.917Z,72.60
2017-10-21T03:32:16.443Z,72.60
2017-10-21T03:33:18.991Z,72.60
2017-10-21T03:34:21.519Z,72.50
2017-10-21T03:35:24.073Z,72.50
2017-10-21T03:36:27.362Z,72.80
2017-10-21T03:37:29.891Z,72.90
2017-10-21T03:38:32.405Z,72.70
2017-10-21T03:39:34.917Z,72.80
2017-10-21T03:40:37.479Z,72.70
2017-10-21T03:41:40.010Z,72.50
2017-10-21T03:42:42.533Z,72.40
2017-10-21T03:43:45.817Z,73.10
2017-10-21T03:44:48.333Z,72.50
2017-10-21T03:45:51.135Z,72.70
2017-10-21T03:46:53.659Z,72.30
2017-10-21T03:47:56.169Z,72.60
2017-10-21T03:48:58.699Z,72.50
2017-10-21T03:50:01.230Z,72.70
2017-10-21T03:51:04.562Z,72.60
2017-10-21T03:52:07.083Z,72.60
2017-10-21T03:53:09.609Z,73.20
2017-10-21T03:54:12.133Z,72.60
2017-10-21T03:55:14.659Z,72.40
2017-10-21T03:56:17.253Z,72.80
2017-10-21T03:57:19.775Z,73.00
2017-10-21T03:58:22.299Z,72.40
2017-10-21T03:59:24.831Z,72.50
2017-10-21T04:00:28.121Z,72.60
2017-10-21T04:01:31.445Z,72.60
2017-10-21T04:02:33.971Z,72.50
2017-10-21T04:03:37.269Z,72.90
2017-10-21T04:04:39.825Z,72.80
2017-10-21T04:05:43.118Z,72.70
2017-10-21T04:06:45.645Z,72.70
2017-10-21T04:07:48.174Z,72.40
2017-10-21T04:08:50.697Z,72.40
2017-10-21T04:09:54.010Z,72.50
2017-10-21T04:10:56.526Z,72.50
2017-10-21T04:11:59.044Z,72.60
2017-10-21T04:13:01.570Z,73.10
2017-10-21T04:14:04.095Z,72.60
2017-10-21T04:15:06.642Z,73.10
2017-10-21T04:16:09.210Z,73.00
2017-10-21T04:17:11.729Z,73.20
2017-10-21T04:18:14.255Z,73.10
2017-10-21T04:19:16.778Z,73.10
2017-10-21T04:20:20.063Z,72.90
2017-10-21T04:21:23.374Z,73.20
2017-10-21T04:22:25.889Z,73.20
2017-10-21T04:23:28.422Z,72.90
2017-10-21T04:24:30.943Z,73.00
2017-10-21T04:25:34.259Z,72.90
2017-10-21T04:26:36.777Z,72.80
2017-10-21T04:27:39.341Z,73.00
2017-10-21T04:28:41.854Z,73.20
2017-10-21T04:29:44.386Z,73.00
2017-10-21T04:30:47.671Z,73.20
2017-10-21T04:31:50.964Z,73.10
2017-10-21T04:32:54.284Z,73.10
2017-10-21T04:33:56.839Z,72.90
2017-10-21T04:34:59.362Z,73.10
2017-10-21T04:36:02.658Z,72.90
2017-10-21T04:37:05.946Z,72.80
2017-10-21T04:38:09.281Z,72.90
2017-10-21T04:39:11.804Z,72.80
2017-10-21T04:40:14.338Z,72.90
2017-10-21T04:41:16.864Z,72.90
2017-10-21T04:42:19.379Z,73.10
2017-10-21T04:43:22.708Z,72.90
2017-10-21T04:44:25.254Z,72.80
2017-10-21T04:45:27.774Z,73.00
2017-10-21T04:46:30.310Z,73.00
2017-10-21T04:47:32.834Z,72.90
2017-10-21T04:48:36.157Z,72.80
2017-10-21T04:49:38.722Z,72.80
2017-10-21T04:50:41.246Z,72.60
2017-10-21T04:51:44.526Z,72.60
2017-10-21T04:52:47.042Z,72.50
2017-10-21T04:53:49.571Z,72.80
2017-10-21T04:54:52.906Z,72.40
2017-10-21T04:55:55.534Z,72.50
2017-10-21T04:56:58.050Z,72.60
2017-10-21T04:58:00.576Z,72.40
2017-10-21T04:59:03.094Z,72.30
2017-10-21T05:00:05.666Z,72.20
2017-10-21T05:01:08.193Z,72.60
2017-10-21T05:02:10.746Z,72.30
2017-10-21T05:03:13.289Z,72.10
2017-10-21T05:05:25.581Z,71.80
2017-10-21T05:06:28.868Z,71.60
2017-10-21T05:07:32.161Z,71.90
2017-10-21T05:08:35.443Z,71.70
2017-10-21T05:09:37.961Z,71.70
2017-10-21T05:10:40.518Z,71.50
2017-10-21T05:11:43.040Z,71.50
2017-10-21T05:12:45.565Z,71.70
2017-10-21T05:13:48.081Z,71.70
2017-10-21T05:14:50.602Z,72.00
2017-10-21T05:15:53.174Z,72.60
2017-10-21T05:16:55.694Z,71.40
2017-10-21T05:17:58.208Z,71.90
2017-10-21T05:19:00.723Z,71.80
2017-10-21T05:20:03.250Z,71.10
2017-10-21T05:21:05.798Z,71.30
2017-10-21T05:22:08.326Z,71.20
2017-10-21T05:23:10.885Z,71.60
2017-10-21T05:24:13.434Z,71.40
2017-10-21T05:25:16.718Z,71.30
2017-10-21T05:26:19.254Z,71.30
2017-10-21T05:27:21.782Z,71.30
2017-10-21T05:28:24.347Z,72.20
2017-10-21T05:29:26.869Z,72.20
2017-10-21T05:30:30.167Z,71.80
2017-10-21T05:31:32.698Z,71.10
2017-10-21T05:32:35.215Z,71.30
2017-10-21T05:33:37.783Z,71.00
2017-10-21T05:34:40.298Z,70.90
2017-10-21T05:35:42.822Z,71.10
2017-10-21T05:36:45.350Z,71.00
2017-10-21T05:37:48.635Z,71.20
2017-10-21T05:38:51.961Z,70.70
2017-10-21T05:39:54.476Z,70.70
2017-10-21T05:40:57.766Z,70.80
2017-10-21T05:42:01.056Z,71.00
2017-10-21T05:43:04.351Z,70.90
2017-10-21T05:44:06.910Z,70.90
2017-10-21T05:45:09.424Z,70.60
2017-10-21T05:46:11.952Z,70.50
2017-10-21T05:47:15.249Z,70.60
2017-10-21T05:48:17.781Z,70.70
2017-10-21T05:49:21.110Z,70.80
2017-10-21T05:50:23.654Z,70.80
2017-10-21T05:51:26.186Z,70.60
2017-10-21T05:52:28.707Z,70.90
2017-10-21T05:53:31.260Z,70.90
2017-10-21T05:54:33.804Z,70.60
2017-10-21T05:55:37.082Z,71.10
2017-10-21T05:56:40.369Z,71.10
2017-10-21T05:57:43.650Z,71.20
2017-10-21T05:58:46.187Z,71.20
2017-10-21T05:59:48.741Z,71.00
2017-10-21T06:00:51.325Z,70.90
2017-10-21T06:01:53.850Z,71.10
2017-10-21T06:02:56.369Z,70.80
2017-10-21T06:03:59.658Z,71.80
2017-10-21T06:05:02.946Z,71.30
2017-10-21T06:06:06.271Z,71.20
2017-10-21T06:07:09.647Z,71.20
2017-10-21T06:08:12.174Z,71.30
2017-10-21T06:09:15.457Z,71.40
2017-10-21T06:10:18.773Z,71.50
2017-10-21T06:11:21.302Z,71.50
2017-10-21T06:12:23.865Z,71.40
2017-10-21T06:13:26.389Z,71.50
2017-10-21T06:14:28.911Z,71.30
2017-10-21T06:15:32.207Z,71.70
2017-10-21T06:16:34.738Z,71.60
2017-10-21T06:17:39.100Z,71.60
2017-10-21T06:18:41.644Z,71.10
2017-10-21T06:19:44.166Z,71.00
2017-10-21T06:20:46.741Z,71.20
2017-10-21T06:21:49.273Z,71.20
2017-10-21T06:22:51.797Z,71.50
2017-10-21T06:23:55.073Z,71.30
2017-10-21T06:24:58.357Z,71.60
2017-10-21T06:26:01.682Z,71.70
2017-10-21T06:27:04.210Z,71.70
2017-10-21T06:28:07.510Z,71.40
2017-10-21T06:29:10.079Z,72.10
2017-10-21T06:30:12.585Z,71.80
2017-10-21T06:31:15.144Z,71.80
2017-10-21T06:32:17.674Z,71.80
2017-10-21T06:33:20.207Z,71.80
2017-10-21T06:34:22.782Z,71.60
2017-10-21T06:35:25.322Z,71.70
2017-10-21T06:36:27.840Z,71.30
2017-10-21T06:37:30.367Z,71.30
2017-10-21T06:38:32.900Z,71.60
2017-10-21T06:39:35.454Z,71.80
2017-10-21T06:40:38.015Z,71.80
2017-10-21T06:41:40.542Z,72.20
2017-10-21T06:42:43.093Z,71.80
2017-10-21T06:43:45.613Z,72.00
2017-10-21T06:44:48.178Z,72.00
2017-10-21T06:45:50.706Z,71.90
2017-10-21T06:46:53.260Z,72.10
2017-10-21T06:47:55.826Z,71.70
2017-10-21T06:48:58.374Z,71.80
2017-10-21T06:50:00.902Z,71.90
2017-10-21T06:51:03.421Z,72.00
2017-10-21T06:52:05.997Z,71.80
2017-10-21T06:53:08.538Z,71.90
2017-10-21T06:54:11.051Z,71.70
2017-10-21T06:55:14.338Z,72.50
2017-10-21T06:56:17.632Z,72.10
2017-10-21T06:57:20.965Z,72.30
2017-10-21T06:58:23.482Z,72.30
2017-10-21T06:59:26.009Z,72.00
2017-10-21T07:00:28.552Z,71.90
2017-10-21T07:01:31.070Z,71.80
2017-10-21T07:02:34.358Z,72.50
2017-10-21T07:03:37.651Z,72.30
2017-10-21T07:04:40.184Z,72.30
2017-10-21T07:05:42.753Z,72.40
2017-10-21T07:06:45.280Z,72.30
2017-10-21T07:07:47.800Z,72.40
2017-10-21T07:08:51.089Z,72.70
2017-10-21T07:09:54.379Z,72.80
2017-10-21T07:10:56.946Z,72.80
2017-10-21T07:11:59.477Z,72.90
2017-10-21T07:13:02.042Z,72.90
2017-10-21T07:14:04.578Z,73.00
2017-10-21T07:15:07.099Z,72.80
2017-10-21T07:16:10.396Z,72.90
2017-10-21T07:17:12.964Z,72.90
2017-10-21T07:18:15.482Z,73.00
2017-10-21T07:19:18.022Z,73.10
2017-10-21T07:20:20.541Z,73.10
2017-10-21T07:21:23.828Z,73.30
2017-10-21T07:22:27.154Z,73.00
2017-10-21T07:23:29.673Z,73.00
2017-10-21T07:24:32.973Z,72.90
2017-10-21T07:25:35.583Z,72.90
2017-10-21T07:26:38.114Z,72.90
2017-10-21T07:27:40.631Z,73.00
2017-10-21T07:28:43.165Z,72.90
2017-10-21T07:29:45.689Z,73.00
2017-10-21T07:30:49.026Z,73.20
2017-10-21T07:31:51.572Z,73.10
2017-10-21T07:32:54.100Z,73.10
2017-10-21T07:33:57.384Z,73.60
2017-10-21T07:35:00.679Z,72.80
2017-10-21T07:36:04.005Z,73.00
2017-10-21T07:37:06.529Z,72.90
2017-10-21T07:38:09.829Z,73.10
2017-10-21T07:39:12.354Z,73.10
2017-10-21T07:40:14.896Z,72.90
2017-10-21T07:41:17.449Z,72.90
2017-10-21T07:42:19.973Z,73.00
2017-10-21T07:43:23.266Z,72.70
2017-10-21T07:44:25.789Z,72.70
2017-10-21T07:45:28.314Z,72.90
2017-10-21T07:46:30.905Z,73.10
2017-10-21T07:47:33.425Z,72.90
2017-10-21T07:48:36.715Z,72.60
2017-10-21T07:49:39.240Z,72.60
2017-10-21T07:50:41.762Z,72.50
2017-10-21T07:51:44.319Z,72.90
2017-10-21T07:52:46.842Z,73.20
2017-10-21T07:53:49.371Z,72.80
2017-10-21T07:54:51.892Z,73.00
2017-10-21T07:55:55.205Z,72.60
2017-10-21T07:56:57.788Z,73.40
2017-10-21T07:58:00.317Z,72.50
2017-10-21T07:59:03.603Z,72.50
2017-10-21T08:00:06.899Z,72.20
2017-10-21T08:01:09.436Z,72.20
2017-10-21T08:02:11.999Z,72.40
2017-10-21T08:03:14.515Z,72.90
2017-10-21T08:04:17.081Z,72.50
2017-10-21T08:05:19.614Z,72.30
2017-10-21T08:06:22.905Z,72.50
2017-10-21T08:07:25.470Z,72.50
2017-10-21T08:08:28.769Z,72.50
2017-10-21T08:09:31.295Z,72.50
2017-10-21T08:10:33.868Z,72.60
2017-10-21T08:11:36.395Z,72.70
2017-10-21T08:12:38.992Z,72.80
2017-10-21T08:13:41.514Z,72.70
2017-10-21T08:14:44.045Z,72.60
2017-10-21T08:15:47.320Z,72.90
2017-10-21T08:16:49.843Z,72.90
2017-10-21T08:17:52.387Z,73.10
2017-10-21T08:18:54.909Z,72.50
2017-10-21T08:19:58.231Z,73.00
2017-10-21T08:21:00.791Z,72.90
2017-10-21T08:22:03.339Z,72.70
2017-10-21T08:23:06.625Z,72.60
2017-10-21T08:24:09.947Z,72.90
2017-10-21T08:25:12.471Z,72.90
2017-10-21T08:26:15.780Z,72.60
2017-10-21T08:27:18.318Z,72.60
2017-10-21T08:28:20.869Z,72.40
2017-10-21T08:29:23.403Z,72.10
2017-10-21T08:30:25.978Z,71.80
2017-10-21T08:31:28.501Z,72.20
2017-10-21T08:32:31.829Z,71.60
2017-10-21T08:33:34.362Z,71.60
2017-10-21T08:34:36.886Z,71.50
2017-10-21T08:35:39.439Z,71.60
2017-10-21T08:36:41.970Z,71.70
2017-10-21T08:37:44.530Z,71.90
2017-10-21T08:38:47.059Z,72.00
2017-10-21T08:39:50.352Z,71.10
2017-10-21T08:40:53.643Z,70.80
2017-10-21T08:41:56.221Z,70.70
2017-10-21T08:42:58.775Z,70.80
2017-10-21T08:44:02.067Z,70.40
2017-10-21T08:45:05.362Z,70.40
2017-10-21T08:46:07.891Z,70.40
2017-10-21T08:47:10.447Z,70.60
2017-10-21T08:48:13.023Z,69.90
2017-10-21T08:49:15.553Z,70.20
2017-10-21T08:50:18.075Z,69.50
2017-10-21T08:51:21.370Z,69.40
2017-10-21T08:52:23.893Z,69.40
2017-10-21T08:53:26.466Z,69.20
2017-10-21T08:54:28.985Z,69.20
2017-10-21T08:55:31.498Z,68.90
2017-10-21T08:56:34.016Z,68.70
2017-10-21T08:57:36.541Z,68.90
2017-10-21T08:58:39.870Z,68.20
2017-10-21T08:59:42.393Z,68.20
2017-10-21T09:00:45.684Z,68.30
2017-10-21T09:01:48.983Z,68.30
2017-10-21T09:02:51.567Z,68.30
2017-10-21T09:03:54.090Z,67.60
2017-10-21T09:04:56.614Z,67.40
2017-10-21T09:05:59.134Z,68.10
2017-10-21T09:07:02.457Z,67.80
2017-10-21T09:08:04.976Z,67.80
2017-10-21T09:09:08.296Z,68.50
2017-10-21T09:10:10.872Z,68.50
2017-10-21T09:11:13.405Z,67.90
2017-10-21T09:12:15.951Z,67.50
2017-10-21T09:13:18.478Z,67.30
2017-10-21T09:14:21.041Z,66.40
2017-10-21T09:15:23.602Z,65.90
2017-10-21T09:16:26.118Z,66.80
2017-10-21T09:17:28.641Z,66.00
2017-10-21T09:18:31.170Z,66.00
2017-10-21T09:19:33.770Z,65.30
2017-10-21T09:20:36.343Z,66.20
2017-10-21T09:21:39.634Z,63.80
2017-10-21T09:22:42.163Z,63.20
2017-10-21T09:23:44.686Z,61.90
2017-10-21T09:24:47.214Z,59.60
2017-10-21T09:25:49.780Z,57.60
2017-10-21T09:26:52.306Z,55.80
2017-10-21T09:27:55.601Z,52.90
2017-10-21T09:28:58.889Z,52.80
2017-10-21T09:30:01.413Z,52.80
2017-10-21T09:31:03.978Z,53.10
2017-10-21T09:32:06.719Z,53.20
2017-10-21T09:33:09.247Z,52.30
2017-10-21T09:34:12.534Z,51.60
2017-10-21T09:35:15.819Z,50.80
2017-10-21T09:36:18.393Z,50.70
2017-10-21T09:37:21.018Z,50.10
2017-10-21T09:38:23.552Z,49.90
2017-10-21T09:39:26.082Z,50.30
2017-10-21T09:40:28.610Z,48.70
2017-10-21T09:41:31.190Z,48.70
2017-10-21T09:42:33.738Z,48.40
2017-10-21T09:43:36.285Z,48.30
2017-10-21T09:44:38.863Z,47.50
2017-10-21T09:45:41.381Z,46.80
2017-10-21T09:46:43.948Z,46.40
2017-10-21T09:47:46.475Z,46.80
2017-10-21T09:48:49.001Z,48.10
2017-10-21T09:49:51.571Z,48.30
2017-10-21T09:50:54.107Z,48.90
2017-10-21T09:51:56.647Z,50.10
2017-10-21T09:52:59.164Z,52.50
2017-10-21T09:54:01.704Z,54.70
2017-10-21T09:55:05.038Z,57.60
2017-10-21T09:56:07.815Z,57.60
2017-10-21T09:57:10.349Z,58.80
2017-10-21T09:58:12.897Z,59.90
2017-10-21T09:59:15.429Z,61.40
2017-10-21T10:00:18.010Z,61.80
2017-10-21T10:01:20.545Z,62.20
2017-10-21T10:02:23.066Z,62.50
2017-10-21T10:03:25.690Z,62.90
2017-10-21T10:04:28.218Z,63.50
2017-10-21T10:05:30.787Z,64.60
2017-10-21T10:06:33.310Z,64.90
2017-10-21T10:07:35.953Z,65.10
2017-10-21T10:08:38.486Z,66.10
2017-10-21T10:09:41.019Z,65.40
2017-10-21T10:10:44.354Z,66.60
2017-10-21T10:11:46.874Z,66.70
2017-10-21T10:12:49.413Z,66.70
2017-10-21T10:13:51.946Z,67.30
2017-10-21T10:14:54.478Z,67.40
2017-10-21T10:15:57.031Z,66.50
2017-10-21T10:17:00.314Z,65.90
2017-10-21T10:18:03.644Z,67.00
2017-10-21T10:19:06.166Z,67.00
2017-10-21T10:20:09.690Z,66.60
2017-10-21T10:21:12.249Z,66.60
2017-10-21T10:22:14.821Z,66.70
2017-10-21T10:23:17.355Z,66.70
2017-10-21T10:24:20.672Z,66.80
2017-10-21T10:25:23.231Z,66.60
2017-10-21T10:26:25.818Z,67.30
2017-10-21T10:27:28.346Z,66.90
2017-10-21T10:28:31.634Z,67.40
2017-10-21T10:29:34.939Z,67.60
2017-10-21T10:30:37.470Z,67.60
2017-10-21T10:31:40.799Z,67.40
2017-10-21T10:32:43.593Z,67.20
2017-10-21T10:33:46.154Z,67.10
2017-10-21T10:34:48.734Z,67.50
2017-10-21T10:35:51.259Z,67.60
2017-10-21T10:36:53.854Z,67.70
2017-10-21T10:37:56.405Z,67.60
2017-10-21T10:38:58.941Z,68.20
2017-10-21T10:40:02.231Z,68.20
2017-10-21T10:41:04.764Z,68.20
2017-10-21T10:42:07.326Z,68.80
2017-10-21T10:43:09.915Z,68.30
2017-10-21T10:44:13.210Z,68.00
2017-10-21T10:45:15.737Z,68.00
2017-10-21T10:46:18.269Z,68.00
2017-10-21T10:47:20.794Z,68.10
2017-10-21T10:48:24.153Z,69.10
2017-10-21T10:49:26.676Z,69.10
2017-10-21T10:50:29.203Z,68.60
2017-10-21T10:51:32.508Z,67.90
2017-10-21T10:52:35.026Z,67.80
2017-10-21T10:53:37.723Z,67.70
2017-10-21T10:54:41.035Z,67.90
2017-10-21T10:55:43.562Z,67.90
2017-10-21T10:56:46.091Z,67.40
2017-10-21T10:57:48.646Z,67.60
2017-10-21T10:58:51.174Z,67.30
2017-10-21T10:59:54.484Z,68.30
2017-10-21T11:00:57.021Z,68.30
2017-10-21T11:02:00.370Z,68.50
2017-10-21T11:03:03.683Z,68.50
2017-10-21T11:04:06.988Z,67.10
2017-10-21T11:05:10.310Z,67.40
2017-10-21T11:06:12.923Z,67.40
2017-10-21T11:07:16.262Z,67.10
2017-10-21T11:08:18.792Z,67.00
2017-10-21T11:09:22.084Z,66.80
2017-10-21T11:10:24.622Z,66.80
2017-10-21T11:11:27.146Z,66.70
2017-10-21T11:12:29.726Z,66.90
2017-10-21T11:13:32.243Z,67.00
2017-10-21T11:14:35.530Z,67.10
2017-10-21T11:15:38.058Z,67.10
2017-10-21T11:16:40.581Z,67.40
2017-10-21T11:17:43.145Z,67.40
2017-10-21T11:18:45.677Z,68.00
2017-10-21T11:19:48.970Z,67.90
2017-10-21T11:20:52.270Z,68.20
2017-10-21T11:21:54.798Z,68.20
2017-10-21T11:22:57.355Z,68.20
2017-10-21T11:23:59.886Z,68.00
2017-10-21T11:25:02.447Z,68.40
2017-10-21T11:26:04.973Z,68.90
2017-10-21T11:27:08.454Z,69.70
2017-10-21T11:28:11.797Z,69.00
2017-10-21T11:29:14.322Z,69.60
2017-10-21T11:30:16.887Z,69.50
2017-10-21T11:31:19.421Z,69.80
2017-10-21T11:32:21.946Z,70.00
2017-10-21T11:33:24.488Z,69.90
2017-10-21T11:34:27.789Z,70.60
2017-10-21T11:35:30.366Z,70.60
2017-10-21T11:36:32.894Z,71.20
2017-10-21T11:37:36.184Z,72.00
2017-10-21T11:38:39.473Z,72.70
2017-10-21T11:39:42.758Z,73.20
2017-10-21T11:40:46.078Z,74.10
2017-10-21T11:41:48.603Z,74.10
2017-10-21T11:42:51.897Z,75.90
2017-10-21T11:43:54.434Z,75.90
2017-10-21T11:44:56.959Z,75.70
2017-10-21T11:45:59.525Z,76.90
2017-10-21T11:47:02.045Z,77.60
2017-10-21T11:48:05.334Z,79.30
2017-10-21T11:49:08.621Z,79.40
2017-10-21T11:50:11.967Z,80.10
2017-10-21T11:51:14.646Z,80.10
2017-10-21T11:52:17.177Z,80.20
2017-10-21T11:53:19.712Z,82.00
2017-10-21T11:54:22.283Z,81.80
2017-10-21T11:55:24.850Z,83.00
2017-10-21T11:56:27.365Z,83.10
2017-10-21T11:57:29.894Z,83.50
2017-10-21T11:58:32.422Z,83.70
2017-10-21T11:59:34.985Z,84.60
2017-10-21T12:00:37.506Z,84.40
2017-10-21T12:01:40.023Z,86.00
2017-10-21T12:02:43.305Z,85.80
2017-10-21T12:03:46.597Z,85.90
2017-10-21T12:04:49.930Z,86.10
2017-10-21T12:05:52.455Z,86.10
2017-10-21T12:06:54.982Z,85.80
2017-10-21T12:07:57.510Z,86.10
2017-10-21T12:09:00.059Z,86.30
2017-10-21T12:10:02.612Z,86.70
2017-10-21T12:11:05.143Z,86.90
2017-10-21T12:12:07.667Z,86.30
2017-10-21T12:13:10.196Z,86.60
2017-10-21T12:14:13.505Z,86.70
2017-10-21T12:15:16.086Z,86.80
2017-10-21T12:16:18.615Z,86.70
2017-10-21T12:17:21.151Z,87.30
2017-10-21T12:18:23.664Z,87.10
2017-10-21T12:19:26.954Z,87.20
2017-10-21T12:20:29.524Z,87.30
2017-10-21T12:21:32.050Z,87.00
2017-10-21T12:22:34.781Z,87.20
2017-10-21T12:23:37.294Z,86.40
2017-10-21T12:24:39.831Z,86.70
2017-10-21T12:25:42.494Z,87.10
2017-10-21T12:26:45.038Z,87.40
2017-10-21T12:27:47.594Z,86.80
2017-10-21T12:28:50.122Z,86.70
2017-10-21T12:29:52.653Z,86.60
2017-10-21T12:30:55.226Z,86.60
2017-10-21T12:31:57.746Z,87.10
2017-10-21T12:33:01.039Z,87.10
2017-10-21T12:34:03.561Z,87.10
2017-10-21T12:35:06.079Z,86.90
2017-10-21T12:36:08.639Z,87.00
2017-10-21T12:37:11.164Z,86.80
2017-10-21T12:38:13.730Z,87.30
2017-10-21T12:39:16.274Z,87.40
2017-10-21T12:40:18.809Z,87.30
2017-10-21T12:41:21.338Z,87.50
2017-10-21T12:42:23.856Z,86.70
2017-10-21T12:43:26.406Z,86.40
2017-10-21T12:44:28.930Z,87.00
2017-10-21T12:45:31.452Z,86.70
2017-10-21T12:46:33.976Z,86.70
2017-10-21T12:47:37.306Z,86.90
2017-10-21T12:48:39.827Z,86.80
2017-10-21T12:49:43.127Z,87.00
2017-10-21T12:50:45.655Z,87.00
2017-10-21T12:51:48.210Z,86.90
2017-10-21T12:52:50.737Z,86.90
2017-10-21T12:53:53.253Z,86.80
2017-10-21T12:54:55.782Z,86.60
2017-10-21T12:55:58.371Z,86.50
2017-10-21T12:57:00.895Z,86.70
2017-10-21T12:58:03.411Z,87.10
2017-10-21T12:59:05.935Z,86.60
2017-10-21T13:00:08.453Z,87.10
2017-10-21T13:01:11.009Z,87.40
2017-10-21T13:02:13.521Z,87.10
2017-10-21T13:03:16.041Z,86.50
2017-10-21T13:04:18.598Z,87.00
2017-10-21T13:05:21.152Z,87.40
2017-10-21T13:06:23.673Z,87.20
2017-10-21T13:07:26.962Z,87.40
2017-10-21T13:08:30.286Z,87.60
2017-10-21T13:09:32.813Z,87.50
2017-10-21T13:10:35.378Z,87.10
2017-10-21T13:11:37.906Z,87.20
2017-10-21T13:12:40.436Z,87.70
2017-10-21T13:13:42.961Z,86.80
2017-10-21T13:14:46.246Z,86.80
2017-10-21T13:15:49.582Z,87.20
2017-10-21T13:16:52.108Z,87.20
2017-10-21T13:17:55.396Z,87.40
2017-10-21T13:18:57.913Z,87.40
2017-10-21T13:20:00.435Z,86.90
2017-10-21T13:21:02.993Z,87.70
2017-10-21T13:22:05.518Z,86.60
2017-10-21T13:23:08.078Z,87.50
2017-10-21T13:24:10.595Z,86.80
2017-10-21T13:25:13.132Z,87.20
2017-10-21T13:26:15.695Z,86.70
2017-10-21T13:27:18.213Z,86.40
2017-10-21T13:28:20.729Z,87.10
2017-10-21T13:29:23.363Z,86.80